sensor_id;sensor_type;location;lat;lon;timestamp;pressure;altitude;pressure_sealevel;temperature;humidity
31005;BME280;17676;52.254;4.490;2023-05-07T00:01:33;101463.44;;;15.74;100.00
31005;BME280;17676;52.254;4.490;2023-05-07T00:03:58;101457.53;;;15.77;100.00
31005;BME280;17676;52.254;4.490;2023-05-07T00:06:25;101458.63;;;15.76;100.00
31005;BME280;17676;52.254;4.490;2023-05-07T00:08:51;101447.16;;;15.67;100.00
31005;BME280;17676;52.254;4.490;2023-05-07T00:11:17;101454.22;;;15.75;100.00
31005;BME280;17676;52.254;4.490;2023-05-07T00:13:42;101457.84;;;15.69;100.00
31005;BME280;17676;52.254;4.490;2023-05-07T00:16:08;101466.03;;;15.69;100.00
31005;BME280;17676;52.254;4.490;2023-05-07T00:18:34;101462.72;;;15.67;100.00
31005;BME280;17676;52.254;4.490;2023-05-07T00:21:04;101477.56;;;15.71;100.00
31005;BME280;17676;52.254;4.490;2023-05-07T00:23:29;101463.94;;;15.71;100.00
31005;BME280;17676;52.254;4.490;2023-05-07T00:25:56;101477.88;;;15.81;100.00
31005;BME280;17676;52.254;4.490;2023-05-07T00:28:21;101467.88;;;15.75;100.00
31005;BME280;17676;52.254;4.490;2023-05-07T00:30:47;101452.94;;;15.77;100.00
31005;BME280;17676;52.254;4.490;2023-05-07T00:33:13;101483.94;;;15.83;100.00
31005;BME280;17676;52.254;4.490;2023-05-07T00:35:38;101463.63;;;15.79;100.00
31005;BME280;17676;52.254;4.490;2023-05-07T00:38:04;101468.91;;;15.74;100.00
31005;BME280;17676;52.254;4.490;2023-05-07T00:40:30;101475.28;;;15.86;100.00
31005;BME280;17676;52.254;4.490;2023-05-07T00:42:55;101464.22;;;15.81;100.00
31005;BME280;17676;52.254;4.490;2023-05-07T00:45:26;101463.00;;;15.77;100.00
31005;BME280;17676;52.254;4.490;2023-05-07T00:47:54;101459.28;;;15.71;100.00
31005;BME280;17676;52.254;4.490;2023-05-07T00:50:20;101460.19;;;15.65;100.00
31005;BME280;17676;52.254;4.490;2023-05-07T00:52:46;101465.22;;;15.68;100.00
31005;BME280;17676;52.254;4.490;2023-05-07T00:55:12;101471.41;;;15.75;100.00
31005;BME280;17676;52.254;4.490;2023-05-07T00:57:40;101470.59;;;15.75;100.00
31005;BME280;17676;52.254;4.490;2023-05-07T01:00:07;101469.09;;;15.79;100.00
31005;BME280;17676;52.254;4.490;2023-05-07T01:02:40;101464.06;;;15.76;100.00
31005;BME280;17676;52.254;4.490;2023-05-07T01:05:09;101467.94;;;15.86;100.00
31005;BME280;17676;52.254;4.490;2023-05-07T01:07:38;101465.44;;;15.85;100.00
31005;BME280;17676;52.254;4.490;2023-05-07T01:10:06;101468.31;;;15.90;100.00
31005;BME280;17676;52.254;4.490;2023-05-07T01:12:33;101467.84;;;15.93;100.00
31005;BME280;17676;52.254;4.490;2023-05-07T01:14:59;101466.19;;;15.92;100.00
31005;BME280;17676;52.254;4.490;2023-05-07T01:17:25;101453.84;;;15.89;100.00
31005;BME280;17676;52.254;4.490;2023-05-07T01:19:51;101460.28;;;15.95;100.00
31005;BME280;17676;52.254;4.490;2023-05-07T01:22:32;101447.31;;;15.90;100.00
31005;BME280;17676;52.254;4.490;2023-05-07T01:24:58;101452.09;;;15.95;100.00
31005;BME280;17676;52.254;4.490;2023-05-07T01:27:25;101448.31;;;15.96;100.00
31005;BME280;17676;52.254;4.490;2023-05-07T01:29:51;101466.97;;;15.99;100.00
31005;BME280;17676;52.254;4.490;2023-05-07T01:32:19;101444.03;;;15.82;100.00
31005;BME280;17676;52.254;4.490;2023-05-07T01:34:48;101435.72;;;15.77;100.00
31005;BME280;17676;52.254;4.490;2023-05-07T01:37:14;101443.66;;;15.78;100.00
31005;BME280;17676;52.254;4.490;2023-05-07T01:39:40;101438.34;;;15.83;100.00
31005;BME280;17676;52.254;4.490;2023-05-07T01:42:07;101450.50;;;15.87;100.00
31005;BME280;17676;52.254;4.490;2023-05-07T01:44:32;101438.97;;;15.85;100.00
31005;BME280;17676;52.254;4.490;2023-05-07T01:46:58;101443.06;;;15.94;100.00
31005;BME280;17676;52.254;4.490;2023-05-07T01:49:31;101441.31;;;16.00;100.00
31005;BME280;17676;52.254;4.490;2023-05-07T01:51:57;101452.31;;;15.93;100.00
31005;BME280;17676;52.254;4.490;2023-05-07T01:54:26;101448.97;;;15.91;100.00
31005;BME280;17676;52.254;4.490;2023-05-07T01:56:57;101462.53;;;15.98;100.00
31005;BME280;17676;52.254;4.490;2023-05-07T01:59:23;101444.34;;;15.92;100.00
31005;BME280;17676;52.254;4.490;2023-05-07T02:01:48;101457.38;;;15.90;100.00
31005;BME280;17676;52.254;4.490;2023-05-07T02:04:14;101454.22;;;15.93;100.00
31005;BME280;17676;52.254;4.490;2023-05-07T02:06:40;101457.03;;;15.86;100.00
31005;BME280;17676;52.254;4.490;2023-05-07T02:09:05;101456.34;;;15.91;100.00
31005;BME280;17676;52.254;4.490;2023-05-07T02:11:30;101455.50;;;15.90;100.00
31005;BME280;17676;52.254;4.490;2023-05-07T02:13:56;101447.63;;;15.82;100.00
31005;BME280;17676;52.254;4.490;2023-05-07T02:16:21;101447.38;;;15.84;100.00
31005;BME280;17676;52.254;4.490;2023-05-07T02:18:48;101446.53;;;15.83;100.00
31005;BME280;17676;52.254;4.490;2023-05-07T02:21:13;101447.84;;;15.81;100.00
31005;BME280;17676;52.254;4.490;2023-05-07T02:23:39;101458.22;;;15.90;100.00
31005;BME280;17676;52.254;4.490;2023-05-07T02:26:05;101450.13;;;15.84;100.00
31005;BME280;17676;52.254;4.490;2023-05-07T02:28:30;101458.59;;;15.94;100.00
31005;BME280;17676;52.254;4.490;2023-05-07T02:30:56;101456.50;;;15.96;100.00
31005;BME280;17676;52.254;4.490;2023-05-07T02:33:23;101466.13;;;15.98;100.00
31005;BME280;17676;52.254;4.490;2023-05-07T02:35:52;101459.81;;;15.98;100.00
31005;BME280;17676;52.254;4.490;2023-05-07T02:38:17;101462.84;;;15.90;100.00
31005;BME280;17676;52.254;4.490;2023-05-07T02:40:43;101468.31;;;15.90;100.00
31005;BME280;17676;52.254;4.490;2023-05-07T02:43:09;101456.34;;;15.91;100.00
31005;BME280;17676;52.254;4.490;2023-05-07T02:45:34;101467.84;;;15.93;100.00
31005;BME280;17676;52.254;4.490;2023-05-07T02:47:59;101459.38;;;16.01;100.00
31005;BME280;17676;52.254;4.490;2023-05-07T02:50:25;101468.47;;;15.95;100.00
31005;BME280;17676;52.254;4.490;2023-05-07T02:52:51;101457.47;;;15.83;100.00
31005;BME280;17676;52.254;4.490;2023-05-07T02:55:17;101464.53;;;15.91;100.00
31005;BME280;17676;52.254;4.490;2023-05-07T02:57:42;101467.41;;;15.96;100.00
31005;BME280;17676;52.254;4.490;2023-05-07T03:00:16;101464.97;;;15.88;100.00
31005;BME280;17676;52.254;4.490;2023-05-07T03:02:41;101471.50;;;15.87;100.00
31005;BME280;17676;52.254;4.490;2023-05-07T03:05:07;101465.88;;;15.82;100.00
31005;BME280;17676;52.254;4.490;2023-05-07T03:07:35;101467.09;;;15.86;100.00
31005;BME280;17676;52.254;4.490;2023-05-07T03:10:00;101464.22;;;15.81;100.00
31005;BME280;17676;52.254;4.490;2023-05-07T03:12:25;101464.22;;;15.81;100.00
31005;BME280;17676;52.254;4.490;2023-05-07T03:14:51;101462.56;;;15.80;100.00
31005;BME280;17676;52.254;4.490;2023-05-07T03:17:17;101459.69;;;15.75;100.00
31005;BME280;17676;52.254;4.490;2023-05-07T03:19:42;101449.88;;;15.67;100.00
31005;BME280;17676;52.254;4.490;2023-05-07T03:22:08;101448.06;;;15.61;100.00
31005;BME280;17676;52.254;4.490;2023-05-07T03:24:33;101441.31;;;15.64;100.00
31005;BME280;17676;52.254;4.490;2023-05-07T03:26:59;101455.13;;;15.69;100.00
31005;BME280;17676;52.254;4.490;2023-05-07T03:29:26;101456.78;;;15.70;100.00
31005;BME280;17676;52.254;4.490;2023-05-07T03:31:51;101459.50;;;15.70;100.00
31005;BME280;17676;52.254;4.490;2023-05-07T03:34:17;101455.13;;;15.69;100.00
31005;BME280;17676;52.254;4.490;2023-05-07T03:36:49;101434.66;;;15.60;100.00
31005;BME280;17676;52.254;4.490;2023-05-07T03:39:15;101441.75;;;15.61;100.00
31005;BME280;17676;52.254;4.490;2023-05-07T03:41:41;101441.75;;;15.61;100.00
31005;BME280;17676;52.254;4.490;2023-05-07T03:44:07;101444.72;;;15.59;100.00
31005;BME280;17676;52.254;4.490;2023-05-07T03:46:33;101450.56;;;15.63;100.00
31005;BME280;17676;52.254;4.490;2023-05-07T03:48:59;101452.69;;;15.61;100.00
31005;BME280;17676;52.254;4.490;2023-05-07T03:51:25;101450.81;;;15.61;100.00
31005;BME280;17676;52.254;4.490;2023-05-07T03:53:51;101453.53;;;15.61;100.00
31005;BME280;17676;52.254;4.490;2023-05-07T03:56:20;101462.22;;;15.70;100.00
31005;BME280;17676;52.254;4.490;2023-05-07T03:58:47;101446.00;;;15.57;100.00
31005;BME280;17676;52.254;4.490;2023-05-07T04:01:13;101447.22;;;15.61;100.00
31005;BME280;17676;52.254;4.490;2023-05-07T04:03:39;101455.63;;;15.59;100.00
31005;BME280;17676;52.254;4.490;2023-05-07T04:06:04;101461.50;;;15.63;100.00
31005;BME280;17676;52.254;4.490;2023-05-07T04:08:31;101462.31;;;15.63;100.00
31005;BME280;17676;52.254;4.490;2023-05-07T04:10:57;101461.88;;;15.66;100.00
31005;BME280;17676;52.254;4.490;2023-05-07T04:13:23;101463.16;;;15.64;100.00
31005;BME280;17676;52.254;4.490;2023-05-07T04:15:48;101461.09;;;15.59;100.00
31005;BME280;17676;52.254;4.490;2023-05-07T04:18:14;101466.47;;;15.66;100.00
31005;BME280;17676;52.254;4.490;2023-05-07T04:20:40;101474.22;;;15.69;100.00
31005;BME280;17676;52.254;4.490;2023-05-07T04:23:06;101470.50;;;15.63;100.00
31005;BME280;17676;52.254;4.490;2023-05-07T04:25:32;101471.56;;;15.62;100.00
31005;BME280;17676;52.254;4.490;2023-05-07T04:27:58;101461.09;;;15.59;100.00
31005;BME280;17676;52.254;4.490;2023-05-07T04:30:24;101477.88;;;15.63;100.00
31005;BME280;17676;52.254;4.490;2023-05-07T04:32:49;101474.44;;;15.67;100.00
31005;BME280;17676;52.254;4.490;2023-05-07T04:35:15;101470.91;;;15.67;100.00
31005;BME280;17676;52.254;4.490;2023-05-07T04:37:41;101475.28;;;15.68;100.00
31005;BME280;17676;52.254;4.490;2023-05-07T04:40:07;101460.66;;;15.62;100.00
31005;BME280;17676;52.254;4.490;2023-05-07T04:42:32;101468.16;;;15.67;100.00
31005;BME280;17676;52.254;4.490;2023-05-07T04:44:58;101482.72;;;15.79;100.00
31005;BME280;17676;52.254;4.490;2023-05-07T04:47:24;101467.88;;;15.75;100.00
31005;BME280;17676;52.254;4.490;2023-05-07T04:49:49;101488.13;;;15.85;100.00
31005;BME280;17676;52.254;4.490;2023-05-07T04:52:15;101476.66;;;15.77;100.00
31005;BME280;17676;52.254;4.490;2023-05-07T04:54:42;101481.66;;;15.80;100.00
31005;BME280;17676;52.254;4.490;2023-05-07T04:57:07;101482.09;;;15.77;100.00
31005;BME280;17676;52.254;4.490;2023-05-07T04:59:33;101475.97;;;15.81;100.00
31005;BME280;17676;52.254;4.490;2023-05-07T05:01:58;101484.94;;;15.88;100.00
31005;BME280;17676;52.254;4.490;2023-05-07T05:04:24;101483.03;;;15.89;100.00
31005;BME280;17676;52.254;4.490;2023-05-07T05:06:50;101482.59;;;15.92;100.00
31005;BME280;17676;52.254;4.490;2023-05-07T05:09:15;101481.38;;;15.88;100.00
31005;BME280;17676;52.254;4.490;2023-05-07T05:11:41;101477.56;;;15.89;100.00
31005;BME280;17676;52.254;4.490;2023-05-07T05:14:07;101480.44;;;15.94;100.00
31005;BME280;17676;52.254;4.490;2023-05-07T05:16:32;101478.47;;;16.01;100.00
31005;BME280;17676;52.254;4.490;2023-05-07T05:18:59;101482.88;;;16.02;100.00
31005;BME280;17676;52.254;4.490;2023-05-07T05:21:24;101481.03;;;16.14;100.00
31005;BME280;17676;52.254;4.490;2023-05-07T05:23:50;101494.25;;;16.17;100.00
31005;BME280;17676;52.254;4.490;2023-05-07T05:26:15;101485.69;;;16.13;100.00
31005;BME280;17676;52.254;4.490;2023-05-07T05:28:41;101502.97;;;16.25;100.00
31005;BME280;17676;52.254;4.490;2023-05-07T05:31:07;101484.59;;;16.32;100.00
31005;BME280;17676;52.254;4.490;2023-05-07T05:33:32;101485.56;;;16.38;100.00
31005;BME280;17676;52.254;4.490;2023-05-07T05:35:58;101502.56;;;16.58;100.00
31005;BME280;17676;52.254;4.490;2023-05-07T05:38:23;101489.38;;;16.55;100.00
31005;BME280;17676;52.254;4.490;2023-05-07T05:40:49;101507.00;;;16.59;100.00
31005;BME280;17676;52.254;4.490;2023-05-07T05:43:15;101498.16;;;16.57;100.00
31005;BME280;17676;52.254;4.490;2023-05-07T05:45:40;101504.00;;;16.60;100.00
31005;BME280;17676;52.254;4.490;2023-05-07T05:48:06;101500.63;;;16.47;100.00
31005;BME280;17676;52.254;4.490;2023-05-07T05:50:31;101505.78;;;16.55;100.00
31005;BME280;17676;52.254;4.490;2023-05-07T05:52:57;101511.16;;;16.43;100.00
31005;BME280;17676;52.254;4.490;2023-05-07T05:55:23;101495.84;;;16.42;100.00
31005;BME280;17676;52.254;4.490;2023-05-07T05:57:50;101503.03;;;16.55;100.00
31005;BME280;17676;52.254;4.490;2023-05-07T06:00:17;101516.75;;;16.66;100.00
31005;BME280;17676;52.254;4.490;2023-05-07T06:02:43;101508.25;;;16.56;100.00
31005;BME280;17676;52.254;4.490;2023-05-07T06:05:09;101496.97;;;16.53;100.00
31005;BME280;17676;52.254;4.490;2023-05-07T06:07:34;101500.94;;;16.68;100.00
31005;BME280;17676;52.254;4.490;2023-05-07T06:10:02;101509.47;;;16.90;100.00
31005;BME280;17676;52.254;4.490;2023-05-07T06:12:29;101509.25;;;17.03;100.00
31005;BME280;17676;52.254;4.490;2023-05-07T06:14:54;101514.72;;;17.03;100.00
31005;BME280;17676;52.254;4.490;2023-05-07T06:17:20;101512.94;;;16.97;100.00
31005;BME280;17676;52.254;4.490;2023-05-07T06:19:45;101509.91;;;16.87;100.00
31005;BME280;17676;52.254;4.490;2023-05-07T06:22:11;101511.38;;;16.89;100.00
31005;BME280;17676;52.254;4.490;2023-05-07T06:24:37;101518.63;;;16.95;100.00
31005;BME280;17676;52.254;4.490;2023-05-07T06:27:02;101515.31;;;16.93;100.00
31005;BME280;17676;52.254;4.490;2023-05-07T06:29:28;101514.94;;;16.90;100.00
31005;BME280;17676;52.254;4.490;2023-05-07T06:31:56;101533.16;;;16.96;100.00
31005;BME280;17676;52.254;4.490;2023-05-07T06:34:22;101531.22;;;16.96;100.00
31005;BME280;17676;52.254;4.490;2023-05-07T06:36:48;101535.81;;;17.14;100.00
31005;BME280;17676;52.254;4.490;2023-05-07T06:39:13;101538.13;;;16.99;100.00
31005;BME280;17676;52.254;4.490;2023-05-07T06:41:39;101532.50;;;17.12;100.00
31005;BME280;17676;52.254;4.490;2023-05-07T06:44:05;101528.56;;;17.31;100.00
31005;BME280;17676;52.254;4.490;2023-05-07T06:46:30;101517.56;;;17.95;100.00
31005;BME280;17676;52.254;4.490;2023-05-07T06:48:56;101521.81;;;18.14;100.00
31005;BME280;17676;52.254;4.490;2023-05-07T06:51:22;101527.25;;;18.48;100.00
31005;BME280;17676;52.254;4.490;2023-05-07T06:53:48;101524.13;;;19.29;100.00
31005;BME280;17676;52.254;4.490;2023-05-07T06:56:13;101528.03;;;20.64;100.00
31005;BME280;17676;52.254;4.490;2023-05-07T06:58:39;101527.00;;;22.32;100.00
31005;BME280;17676;52.254;4.490;2023-05-07T07:01:04;101545.66;;;22.67;100.00
31005;BME280;17676;52.254;4.490;2023-05-07T07:03:30;101546.13;;;23.46;100.00
31005;BME280;17676;52.254;4.490;2023-05-07T07:05:55;101540.84;;;23.84;100.00
31005;BME280;17676;52.254;4.490;2023-05-07T07:08:22;101534.47;;;23.84;100.00
31005;BME280;17676;52.254;4.490;2023-05-07T07:10:48;101544.84;;;24.42;100.00
31005;BME280;17676;52.254;4.490;2023-05-07T07:13:13;101549.22;;;24.68;100.00
31005;BME280;17676;52.254;4.490;2023-05-07T07:15:39;101542.94;;;25.39;100.00
31005;BME280;17676;52.254;4.490;2023-05-07T07:18:06;101562.97;;;25.65;100.00
31005;BME280;17676;52.254;4.490;2023-05-07T07:20:31;101565.81;;;25.16;100.00
31005;BME280;17676;52.254;4.490;2023-05-07T07:22:57;101562.38;;;24.91;100.00
31005;BME280;17676;52.254;4.490;2023-05-07T07:25:22;101546.63;;;24.08;100.00
31005;BME280;17676;52.254;4.490;2023-05-07T07:27:49;101538.28;;;22.26;100.00
31005;BME280;17676;52.254;4.490;2023-05-07T07:30:14;101537.81;;;23.61;100.00
31005;BME280;17676;52.254;4.490;2023-05-07T07:32:40;101540.53;;;23.81;100.00
31005;BME280;17676;52.254;4.490;2023-05-07T07:35:06;101541.00;;;24.33;100.00
31005;BME280;17676;52.254;4.490;2023-05-07T07:37:33;101546.31;;;24.14;100.00
31005;BME280;17676;52.254;4.490;2023-05-07T07:39:59;101545.63;;;24.57;100.00
31005;BME280;17676;52.254;4.490;2023-05-07T07:42:25;101552.31;;;25.05;100.00
31005;BME280;17676;52.254;4.490;2023-05-07T07:44:51;101553.38;;;25.52;100.00
31005;BME280;17676;52.254;4.490;2023-05-07T07:47:20;101539.63;;;26.28;100.00
31005;BME280;17676;52.254;4.490;2023-05-07T07:49:46;101561.81;;;26.75;100.00
31005;BME280;17676;52.254;4.490;2023-05-07T07:52:11;101532.72;;;27.60;100.00
31005;BME280;17676;52.254;4.490;2023-05-07T07:54:37;101540.44;;;27.12;100.00
31005;BME280;17676;52.254;4.490;2023-05-07T07:57:03;101536.91;;;27.44;100.00
31005;BME280;17676;52.254;4.490;2023-05-07T07:59:29;101544.03;;;27.50;100.00
31005;BME280;17676;52.254;4.490;2023-05-07T08:01:54;101551.47;;;26.99;100.00
31005;BME280;17676;52.254;4.490;2023-05-07T08:04:21;101553.06;;;27.42;100.00
31005;BME280;17676;52.254;4.490;2023-05-07T08:06:46;101547.69;;;27.64;100.00
31005;BME280;17676;52.254;4.490;2023-05-07T08:09:12;101554.88;;;28.43;100.00
31005;BME280;17676;52.254;4.490;2023-05-07T08:11:38;101545.53;;;28.88;100.00
31005;BME280;17676;52.254;4.490;2023-05-07T08:14:04;101551.34;;;28.10;100.00
31005;BME280;17676;52.254;4.490;2023-05-07T08:16:30;101557.38;;;27.85;100.00
31005;BME280;17676;52.254;4.490;2023-05-07T08:18:56;101549.91;;;27.81;100.00
31005;BME280;17676;52.254;4.490;2023-05-07T08:21:22;101547.22;;;27.06;100.00
31005;BME280;17676;52.254;4.490;2023-05-07T08:23:48;101560.84;;;27.77;100.00
31005;BME280;17676;52.254;4.490;2023-05-07T08:26:14;101567.59;;;27.20;100.00
31005;BME280;17676;52.254;4.490;2023-05-07T08:28:39;101565.97;;;25.73;100.00
31005;BME280;17676;52.254;4.490;2023-05-07T08:31:05;101564.56;;;24.99;100.00
31005;BME280;17676;52.254;4.490;2023-05-07T08:33:31;101568.44;;;24.19;100.00
31005;BME280;17676;52.254;4.490;2023-05-07T08:35:57;101579.81;;;24.23;100.00
31005;BME280;17676;52.254;4.490;2023-05-07T08:38:23;101583.97;;;23.40;100.00
31005;BME280;17676;52.254;4.490;2023-05-07T08:40:48;101579.72;;;22.97;100.00
31005;BME280;17676;52.254;4.490;2023-05-07T08:43:14;101580.31;;;23.09;100.00
31005;BME280;17676;52.254;4.490;2023-05-07T08:45:40;101586.47;;;23.52;100.00
31005;BME280;17676;52.254;4.490;2023-05-07T08:48:09;101589.25;;;23.67;100.00
31005;BME280;17676;52.254;4.490;2023-05-07T08:50:38;101577.63;;;23.90;100.00
31005;BME280;17676;52.254;4.490;2023-05-07T08:53:04;101579.28;;;23.71;100.00
31005;BME280;17676;52.254;4.490;2023-05-07T08:55:30;101578.75;;;23.99;100.00
31005;BME280;17676;52.254;4.490;2023-05-07T08:57:56;101578.66;;;24.29;100.00
31005;BME280;17676;52.254;4.490;2023-05-07T09:00:21;101576.19;;;24.22;100.00
31005;BME280;17676;52.254;4.490;2023-05-07T09:02:47;101579.81;;;24.08;100.00
31005;BME280;17676;52.254;4.490;2023-05-07T09:05:13;101569.31;;;23.75;100.00
31005;BME280;17676;52.254;4.490;2023-05-07T09:07:39;101589.06;;;22.86;100.00
31005;BME280;17676;52.254;4.490;2023-05-07T09:10:05;101579.22;;;23.20;100.00
31005;BME280;17676;52.254;4.490;2023-05-07T09:12:31;101578.44;;;23.70;100.00
31005;BME280;17676;52.254;4.490;2023-05-07T09:14:58;101578.94;;;24.37;100.00
31005;BME280;17676;52.254;4.490;2023-05-07T09:17:24;101580.63;;;24.28;100.00
31005;BME280;17676;52.254;4.490;2023-05-07T09:19:49;101572.88;;;24.94;100.00
31005;BME280;17676;52.254;4.490;2023-05-07T09:22:16;101584.63;;;26.25;100.00
31005;BME280;17676;52.254;4.490;2023-05-07T09:24:47;101576.53;;;26.28;100.00
31005;BME280;17676;52.254;4.490;2023-05-07T09:27:13;101570.94;;;24.26;100.00
31005;BME280;17676;52.254;4.490;2023-05-07T09:29:39;101589.75;;;23.89;100.00
31005;BME280;17676;52.254;4.490;2023-05-07T09:32:08;101577.81;;;24.33;100.00
31005;BME280;17676;52.254;4.490;2023-05-07T09:34:34;101589.38;;;25.14;100.00
31005;BME280;17676;52.254;4.490;2023-05-07T09:37:03;101594.09;;;24.55;100.00
31005;BME280;17676;52.254;4.490;2023-05-07T09:39:42;101594.78;;;23.97;100.00
31005;BME280;17676;52.254;4.490;2023-05-07T09:42:08;101590.34;;;24.01;100.00
31005;BME280;17676;52.254;4.490;2023-05-07T09:44:34;101584.81;;;24.01;100.00
31005;BME280;17676;52.254;4.490;2023-05-07T09:47:00;101600.00;;;24.03;100.00
31005;BME280;17676;52.254;4.490;2023-05-07T09:49:29;101590.31;;;23.35;100.00
31005;BME280;17676;52.254;4.490;2023-05-07T09:51:55;101589.22;;;23.52;100.00
31005;BME280;17676;52.254;4.490;2023-05-07T09:54:22;101585.13;;;22.67;100.00
31005;BME280;17676;52.254;4.490;2023-05-07T09:56:52;101577.72;;;22.26;100.00
31005;BME280;17676;52.254;4.490;2023-05-07T09:59:18;101584.09;;;22.32;100.00
31005;BME280;17676;52.254;4.490;2023-05-07T10:01:46;101586.44;;;22.08;100.00
31005;BME280;17676;52.254;4.490;2023-05-07T10:04:12;101601.03;;;22.04;100.00
31005;BME280;17676;52.254;4.490;2023-05-07T10:06:39;101593.44;;;21.26;100.00
31005;BME280;17676;52.254;4.490;2023-05-07T10:09:05;101610.50;;;21.23;100.00
31005;BME280;17676;52.254;4.490;2023-05-07T10:11:35;101603.53;;;22.10;100.00
31005;BME280;17676;52.254;4.490;2023-05-07T10:14:02;101616.22;;;22.48;100.00
31005;BME280;17676;52.254;4.490;2023-05-07T10:16:37;101595.63;;;22.70;100.00
31005;BME280;17676;52.254;4.490;2023-05-07T10:19:06;101602.28;;;22.74;100.00
31005;BME280;17676;52.254;4.490;2023-05-07T10:21:54;101592.41;;;22.98;100.00
31005;BME280;17676;52.254;4.490;2023-05-07T10:24:33;101597.41;;;23.01;100.00
31005;BME280;17676;52.254;4.490;2023-05-07T10:27:04;101594.13;;;23.09;100.00
31005;BME280;17676;52.254;4.490;2023-05-07T10:32:46;101601.91;;;22.51;100.00
31005;BME280;17676;52.254;4.490;2023-05-07T10:35:18;101609.22;;;22.35;100.00
31005;BME280;17676;52.254;4.490;2023-05-07T10:37:45;101603.47;;;21.69;100.00
31005;BME280;17676;52.254;4.490;2023-05-07T10:40:13;101606.84;;;21.71;100.00
31005;BME280;17676;52.254;4.490;2023-05-07T10:42:55;101599.88;;;22.36;100.00
31005;BME280;17676;52.254;4.490;2023-05-07T10:45:22;101593.72;;;22.24;100.00
31005;BME280;17676;52.254;4.490;2023-05-07T10:50:37;101615.78;;;23.93;100.00
31005;BME280;17676;52.254;4.490;2023-05-07T10:55:48;101604.69;;;23.38;100.00
31005;BME280;17676;52.254;4.490;2023-05-07T11:00:47;101612.19;;;22.70;100.00
31005;BME280;17676;52.254;4.490;2023-05-07T11:03:13;101619.19;;;22.41;100.00
31005;BME280;17676;52.254;4.490;2023-05-07T11:05:41;101609.56;;;23.10;100.00
31005;BME280;17676;52.254;4.490;2023-05-07T11:08:09;101613.56;;;24.05;100.00
31005;BME280;17676;52.254;4.490;2023-05-07T11:10:55;101613.31;;;22.74;100.00
31005;BME280;17676;52.254;4.490;2023-05-07T11:13:43;101619.28;;;22.10;100.00
31005;BME280;17676;52.254;4.490;2023-05-07T11:18:51;101607.69;;;22.13;100.00
31005;BME280;17676;52.254;4.490;2023-05-07T11:21:35;101620.41;;;22.55;100.00
31005;BME280;17676;52.254;4.490;2023-05-07T11:24:02;101604.56;;;22.97;100.00
31005;BME280;17676;52.254;4.490;2023-05-07T11:26:30;101600.97;;;23.02;100.00
31005;BME280;17676;52.254;4.490;2023-05-07T11:28:57;101601.81;;;23.07;100.00
31005;BME280;17676;52.254;4.490;2023-05-07T11:31:25;101593.34;;;23.29;100.00
31005;BME280;17676;52.254;4.490;2023-05-07T11:33:52;101600.25;;;23.36;100.00
31005;BME280;17676;52.254;4.490;2023-05-07T11:36:19;101611.34;;;23.87;100.00
31005;BME280;17676;52.254;4.490;2023-05-07T11:38:45;101607.66;;;23.16;100.00
31005;BME280;17676;52.254;4.490;2023-05-07T11:41:11;101601.38;;;23.35;100.00
31005;BME280;17676;52.254;4.490;2023-05-07T11:43:37;101609.13;;;23.48;100.00
31005;BME280;17676;52.254;4.490;2023-05-07T11:46:09;101608.59;;;23.62;100.00
31005;BME280;17676;52.254;4.490;2023-05-07T11:48:35;101607.19;;;23.74;100.00
31005;BME280;17676;52.254;4.490;2023-05-07T11:51:02;101612.44;;;23.56;100.00
31005;BME280;17676;52.254;4.490;2023-05-07T11:53:36;101609.41;;;23.52;100.00
31005;BME280;17676;52.254;4.490;2023-05-07T11:56:09;101610.31;;;22.81;100.00
31005;BME280;17676;52.254;4.490;2023-05-07T11:58:35;101612.19;;;22.70;100.00
31005;BME280;17676;52.254;4.490;2023-05-07T12:01:06;101615.81;;;22.29;100.00
31005;BME280;17676;52.254;4.490;2023-05-07T12:03:32;101624.97;;;21.98;100.00
31005;BME280;17676;52.254;4.490;2023-05-07T12:05:59;101632.66;;;21.65;100.00
31005;BME280;17676;52.254;4.490;2023-05-07T12:08:25;101648.84;;;21.83;100.00
31005;BME280;17676;52.254;4.490;2023-05-07T12:10:51;101663.34;;;21.20;100.00
31005;BME280;17676;52.254;4.490;2023-05-07T12:13:22;101655.38;;;21.02;100.00
31005;BME280;17676;52.254;4.490;2023-05-07T12:15:55;101658.63;;;20.56;100.00
31005;BME280;17676;52.254;4.490;2023-05-07T12:18:21;101659.25;;;20.42;100.00
31005;BME280;17676;52.254;4.490;2023-05-07T12:20:48;101665.84;;;20.24;100.00
31005;BME280;17676;52.254;4.490;2023-05-07T12:23:14;101664.53;;;20.10;100.00
31005;BME280;17676;52.254;4.490;2023-05-07T12:25:41;101660.44;;;19.35;100.00
31005;BME280;17676;52.254;4.490;2023-05-07T12:28:13;101677.78;;;19.12;100.00
31005;BME280;17676;52.254;4.490;2023-05-07T12:30:43;101677.94;;;19.06;100.00
31005;BME280;17676;52.254;4.490;2023-05-07T12:33:09;101681.06;;;18.98;100.00
31005;BME280;17676;52.254;4.490;2023-05-07T12:35:40;101678.41;;;19.03;100.00
31005;BME280;17676;52.254;4.490;2023-05-07T12:38:14;101671.56;;;18.89;100.00
31005;BME280;17676;52.254;4.490;2023-05-07T12:40:46;101683.75;;;18.70;100.00
31005;BME280;17676;52.254;4.490;2023-05-07T12:43:31;101668.97;;;18.48;100.00
31005;BME280;17676;52.254;4.490;2023-05-07T12:46:12;101671.22;;;18.28;100.00
31005;BME280;17676;52.254;4.490;2023-05-07T12:48:44;101664.91;;;18.16;100.00
31005;BME280;17676;52.254;4.490;2023-05-07T12:51:11;101665.41;;;18.13;100.00
31005;BME280;17676;52.254;4.490;2023-05-07T12:53:42;101664.41;;;17.96;100.00